sensor_id;sensor_type;location;lat;lon;timestamp;temperature;humidity
25320;DHT22;13256;49.012;8.610;2024-03-17T00:01:12;6.90;99.90
25320;DHT22;13256;49.012;8.610;2024-03-17T00:03:38;6.90;99.90
25320;DHT22;13256;49.012;8.610;2024-03-17T00:08:58;6.80;99.90
25320;DHT22;13256;49.012;8.610;2024-03-17T00:11:28;6.80;99.90
25320;DHT22;13256;49.012;8.610;2024-03-17T00:13:55;6.80;99.90
25320;DHT22;13256;49.012;8.610;2024-03-17T00:16:22;6.70;99.90
25320;DHT22;13256;49.012;8.610;2024-03-17T00:18:50;6.70;99.90
25320;DHT22;13256;49.012;8.610;2024-03-17T00:21:18;6.70;99.90
25320;DHT22;13256;49.012;8.610;2024-03-17T00:24:00;6.70;99.90
25320;DHT22;13256;49.012;8.610;2024-03-17T00:26:34;6.80;99.90
25320;DHT22;13256;49.012;8.610;2024-03-17T00:29:10;6.80;99.90
25320;DHT22;13256;49.012;8.610;2024-03-17T00:31:48;6.70;99.90
25320;DHT22;13256;49.012;8.610;2024-03-17T00:34:15;6.70;99.90
25320;DHT22;13256;49.012;8.610;2024-03-17T00:36:42;6.60;99.90
25320;DHT22;13256;49.012;8.610;2024-03-17T00:39:10;6.60;99.90
25320;DHT22;13256;49.012;8.610;2024-03-17T00:41:38;6.60;99.90
25320;DHT22;13256;49.012;8.610;2024-03-17T00:44:05;6.70;99.90
25320;DHT22;13256;49.012;8.610;2024-03-17T00:46:36;6.70;99.90
25320;DHT22;13256;49.012;8.610;2024-03-17T00:49:07;6.60;99.90
25320;DHT22;13256;49.012;8.610;2024-03-17T00:51:42;6.60;99.90
25320;DHT22;13256;49.012;8.610;2024-03-17T00:54:11;6.70;99.90
25320;DHT22;13256;49.012;8.610;2024-03-17T00:56:41;6.60;99.90
25320;DHT22;13256;49.012;8.610;2024-03-17T00:59:08;6.60;99.90
25320;DHT22;13256;49.012;8.610;2024-03-17T01:01:36;6.60;99.90
25320;DHT22;13256;49.012;8.610;2024-03-17T01:04:07;6.60;99.90
25320;DHT22;13256;49.012;8.610;2024-03-17T01:06:35;6.50;99.90
25320;DHT22;13256;49.012;8.610;2024-03-17T01:09:10;6.40;99.90
25320;DHT22;13256;49.012;8.610;2024-03-17T01:11:37;6.40;99.90
25320;DHT22;13256;49.012;8.610;2024-03-17T01:14:07;6.30;99.90
25320;DHT22;13256;49.012;8.610;2024-03-17T01:16:40;6.30;99.90
25320;DHT22;13256;49.012;8.610;2024-03-17T01:22:01;6.20;99.90
25320;DHT22;13256;49.012;8.610;2024-03-17T01:24:31;6.20;99.90
25320;DHT22;13256;49.012;8.610;2024-03-17T01:27:00;6.20;99.90
25320;DHT22;13256;49.012;8.610;2024-03-17T01:29:31;6.20;99.90
25320;DHT22;13256;49.012;8.610;2024-03-17T01:31:58;6.10;99.90
25320;DHT22;13256;49.012;8.610;2024-03-17T01:37:26;6.00;99.90
25320;DHT22;13256;49.012;8.610;2024-03-17T01:39:52;5.90;99.90
25320;DHT22;13256;49.012;8.610;2024-03-17T01:42:26;5.80;99.90
25320;DHT22;13256;49.012;8.610;2024-03-17T01:44:53;5.80;99.90
25320;DHT22;13256;49.012;8.610;2024-03-17T01:47:24;5.80;99.90
25320;DHT22;13256;49.012;8.610;2024-03-17T01:49:56;5.80;99.90
25320;DHT22;13256;49.012;8.610;2024-03-17T01:52:24;5.80;99.90
25320;DHT22;13256;49.012;8.610;2024-03-17T01:54:52;5.80;99.90
25320;DHT22;13256;49.012;8.610;2024-03-17T01:57:22;5.80;99.90
25320;DHT22;13256;49.012;8.610;2024-03-17T01:59:54;5.80;99.90
25320;DHT22;13256;49.012;8.610;2024-03-17T02:02:22;5.70;99.90
25320;DHT22;13256;49.012;8.610;2024-03-17T02:04:52;5.70;99.90
25320;DHT22;13256;49.012;8.610;2024-03-17T02:07:20;5.70;99.90
25320;DHT22;13256;49.012;8.610;2024-03-17T02:09:47;5.70;99.90
25320;DHT22;13256;49.012;8.610;2024-03-17T02:12:16;5.60;99.90
25320;DHT22;13256;49.012;8.610;2024-03-17T02:14:44;5.70;99.90
25320;DHT22;13256;49.012;8.610;2024-03-17T02:17:11;5.70;99.90
25320;DHT22;13256;49.012;8.610;2024-03-17T02:19:37;5.80;99.90
25320;DHT22;13256;49.012;8.610;2024-03-17T02:22:13;5.90;99.90
25320;DHT22;13256;49.012;8.610;2024-03-17T02:24:40;5.90;99.90
25320;DHT22;13256;49.012;8.610;2024-03-17T02:27:07;5.90;99.90
25320;DHT22;13256;49.012;8.610;2024-03-17T02:29:36;5.90;99.90
25320;DHT22;13256;49.012;8.610;2024-03-17T02:32:09;5.90;99.90
25320;DHT22;13256;49.012;8.610;2024-03-17T02:34:38;5.90;99.90
25320;DHT22;13256;49.012;8.610;2024-03-17T02:37:05;5.80;99.90
25320;DHT22;13256;49.012;8.610;2024-03-17T02:39:34;5.70;99.90
25320;DHT22;13256;49.012;8.610;2024-03-17T02:42:04;5.70;99.90
25320;DHT22;13256;49.012;8.610;2024-03-17T02:44:35;5.80;99.90
25320;DHT22;13256;49.012;8.610;2024-03-17T02:47:03;5.80;99.90
25320;DHT22;13256;49.012;8.610;2024-03-17T02:49:31;5.90;99.90
25320;DHT22;13256;49.012;8.610;2024-03-17T02:52:04;5.80;99.90
25320;DHT22;13256;49.012;8.610;2024-03-17T02:54:34;5.80;99.90
25320;DHT22;13256;49.012;8.610;2024-03-17T02:57:06;5.90;99.90
25320;DHT22;13256;49.012;8.610;2024-03-17T02:59:38;5.90;99.90
25320;DHT22;13256;49.012;8.610;2024-03-17T03:02:06;5.90;99.90
25320;DHT22;13256;49.012;8.610;2024-03-17T03:04:33;5.90;99.90
25320;DHT22;13256;49.012;8.610;2024-03-17T03:07:04;5.90;99.90
25320;DHT22;13256;49.012;8.610;2024-03-17T03:09:31;5.80;99.90
25320;DHT22;13256;49.012;8.610;2024-03-17T03:12:01;5.80;99.90
25320;DHT22;13256;49.012;8.610;2024-03-17T03:14:31;5.80;99.90
25320;DHT22;13256;49.012;8.610;2024-03-17T03:17:00;5.70;99.90
25320;DHT22;13256;49.012;8.610;2024-03-17T03:19:30;5.70;99.90
25320;DHT22;13256;49.012;8.610;2024-03-17T03:21:57;5.70;99.90
25320;DHT22;13256;49.012;8.610;2024-03-17T03:24:25;5.70;99.90
25320;DHT22;13256;49.012;8.610;2024-03-17T03:27:00;5.60;99.90
25320;DHT22;13256;49.012;8.610;2024-03-17T03:29:33;5.60;99.90
25320;DHT22;13256;49.012;8.610;2024-03-17T03:32:00;5.50;99.90
25320;DHT22;13256;49.012;8.610;2024-03-17T03:34:26;5.40;99.90
25320;DHT22;13256;49.012;8.610;2024-03-17T03:37:22;5.40;99.90
25320;DHT22;13256;49.012;8.610;2024-03-17T03:39:50;5.30;99.90
25320;DHT22;13256;49.012;8.610;2024-03-17T03:42:17;5.30;99.90
25320;DHT22;13256;49.012;8.610;2024-03-17T03:44:46;5.20;99.90
25320;DHT22;13256;49.012;8.610;2024-03-17T03:47:18;5.20;99.90
25320;DHT22;13256;49.012;8.610;2024-03-17T03:49:47;5.20;99.90
25320;DHT22;13256;49.012;8.610;2024-03-17T03:52:17;5.20;99.90
25320;DHT22;13256;49.012;8.610;2024-03-17T03:54:46;5.30;99.90
25320;DHT22;13256;49.012;8.610;2024-03-17T03:57:16;5.30;99.90
25320;DHT22;13256;49.012;8.610;2024-03-17T03:59:44;5.20;99.90
25320;DHT22;13256;49.012;8.610;2024-03-17T04:02:16;5.20;99.90
25320;DHT22;13256;49.012;8.610;2024-03-17T04:04:46;5.30;99.90
25320;DHT22;13256;49.012;8.610;2024-03-17T04:07:15;5.20;99.90
25320;DHT22;13256;49.012;8.610;2024-03-17T04:09:45;5.20;99.90
25320;DHT22;13256;49.012;8.610;2024-03-17T04:12:36;5.10;99.90
25320;DHT22;13256;49.012;8.610;2024-03-17T04:15:06;5.10;99.90
25320;DHT22;13256;49.012;8.610;2024-03-17T04:17:41;5.00;99.90
25320;DHT22;13256;49.012;8.610;2024-03-17T04:20:12;5.00;99.90
25320;DHT22;13256;49.012;8.610;2024-03-17T04:22:41;5.00;99.90
25320;DHT22;13256;49.012;8.610;2024-03-17T04:25:11;5.00;99.90
25320;DHT22;13256;49.012;8.610;2024-03-17T04:27:39;4.90;99.90
25320;DHT22;13256;49.012;8.610;2024-03-17T04:30:07;4.90;99.90
25320;DHT22;13256;49.012;8.610;2024-03-17T04:32:38;4.80;99.90
25320;DHT22;13256;49.012;8.610;2024-03-17T04:35:07;4.80;99.90
25320;DHT22;13256;49.012;8.610;2024-03-17T04:37:37;4.80;99.90
25320;DHT22;13256;49.012;8.610;2024-03-17T04:40:09;4.80;99.90
25320;DHT22;13256;49.012;8.610;2024-03-17T04:42:38;4.70;99.90
25320;DHT22;13256;49.012;8.610;2024-03-17T04:45:06;4.80;99.90
25320;DHT22;13256;49.012;8.610;2024-03-17T04:47:37;4.80;99.90
25320;DHT22;13256;49.012;8.610;2024-03-17T04:50:05;4.80;99.90
25320;DHT22;13256;49.012;8.610;2024-03-17T04:52:32;4.80;99.90
25320;DHT22;13256;49.012;8.610;2024-03-17T04:55:00;4.80;99.90
25320;DHT22;13256;49.012;8.610;2024-03-17T04:57:28;4.70;99.90
25320;DHT22;13256;49.012;8.610;2024-03-17T04:59:56;4.80;99.90
25320;DHT22;13256;49.012;8.610;2024-03-17T05:02:23;4.80;99.90
25320;DHT22;13256;49.012;8.610;2024-03-17T05:04:50;4.80;99.90
25320;DHT22;13256;49.012;8.610;2024-03-17T05:07:18;4.80;99.90
25320;DHT22;13256;49.012;8.610;2024-03-17T05:09:45;4.70;99.90
25320;DHT22;13256;49.012;8.610;2024-03-17T05:12:15;4.70;99.90
25320;DHT22;13256;49.012;8.610;2024-03-17T05:14:42;4.70;99.90
25320;DHT22;13256;49.012;8.610;2024-03-17T05:17:11;4.60;99.90
25320;DHT22;13256;49.012;8.610;2024-03-17T05:19:40;4.60;99.90
25320;DHT22;13256;49.012;8.610;2024-03-17T05:22:07;4.60;99.90
25320;DHT22;13256;49.012;8.610;2024-03-17T05:24:34;4.60;99.90
25320;DHT22;13256;49.012;8.610;2024-03-17T05:27:00;4.60;99.90
25320;DHT22;13256;49.012;8.610;2024-03-17T05:29:27;4.60;99.90
25320;DHT22;13256;49.012;8.610;2024-03-17T05:31:53;4.60;99.90
25320;DHT22;13256;49.012;8.610;2024-03-17T05:34:22;4.60;99.90
25320;DHT22;13256;49.012;8.610;2024-03-17T05:36:52;4.60;99.90
25320;DHT22;13256;49.012;8.610;2024-03-17T05:39:21;4.60;99.90
25320;DHT22;13256;49.012;8.610;2024-03-17T05:41:48;4.60;99.90
25320;DHT22;13256;49.012;8.610;2024-03-17T05:44:15;4.50;99.90
25320;DHT22;13256;49.012;8.610;2024-03-17T05:46:43;4.40;99.90
25320;DHT22;13256;49.012;8.610;2024-03-17T05:49:09;4.40;99.90
25320;DHT22;13256;49.012;8.610;2024-03-17T05:51:36;4.40;99.90
25320;DHT22;13256;49.012;8.610;2024-03-17T05:54:03;4.30;99.90
25320;DHT22;13256;49.012;8.610;2024-03-17T05:56:30;4.30;99.90
25320;DHT22;13256;49.012;8.610;2024-03-17T05:58:56;4.30;99.90
25320;DHT22;13256;49.012;8.610;2024-03-17T06:01:23;4.30;99.90
25320;DHT22;13256;49.012;8.610;2024-03-17T06:03:49;4.30;99.90
25320;DHT22;13256;49.012;8.610;2024-03-17T06:08:53;4.40;99.90
25320;DHT22;13256;49.012;8.610;2024-03-17T06:11:20;4.50;99.90
25320;DHT22;13256;49.012;8.610;2024-03-17T06:16:45;4.50;99.90
25320;DHT22;13256;49.012;8.610;2024-03-17T06:19:18;4.50;99.90
25320;DHT22;13256;49.012;8.610;2024-03-17T06:21:56;4.50;99.90
25320;DHT22;13256;49.012;8.610;2024-03-17T06:24:26;4.50;99.90
25320;DHT22;13256;49.012;8.610;2024-03-17T06:26:57;4.60;99.90
25320;DHT22;13256;49.012;8.610;2024-03-17T06:29:27;4.60;99.90
25320;DHT22;13256;49.012;8.610;2024-03-17T06:31:54;4.70;99.90
25320;DHT22;13256;49.012;8.610;2024-03-17T06:34:21;4.70;99.90
25320;DHT22;13256;49.012;8.610;2024-03-17T06:36:55;4.70;99.90
25320;DHT22;13256;49.012;8.610;2024-03-17T06:39:28;4.80;99.90
25320;DHT22;13256;49.012;8.610;2024-03-17T06:41:55;4.80;99.90
25320;DHT22;13256;49.012;8.610;2024-03-17T06:44:22;4.90;99.90
25320;DHT22;13256;49.012;8.610;2024-03-17T06:46:53;4.90;99.90
25320;DHT22;13256;49.012;8.610;2024-03-17T06:49:20;5.00;99.90
25320;DHT22;13256;49.012;8.610;2024-03-17T06:51:55;5.10;99.90
25320;DHT22;13256;49.012;8.610;2024-03-17T06:54:24;5.20;99.90
25320;DHT22;13256;49.012;8.610;2024-03-17T06:56:51;5.20;99.90
25320;DHT22;13256;49.012;8.610;2024-03-17T06:59:23;5.30;99.90
25320;DHT22;13256;49.012;8.610;2024-03-17T07:01:59;5.40;99.90
25320;DHT22;13256;49.012;8.610;2024-03-17T07:04:26;5.50;99.90
25320;DHT22;13256;49.012;8.610;2024-03-17T07:06:55;5.60;99.90
25320;DHT22;13256;49.012;8.610;2024-03-17T07:09:21;5.70;99.90
25320;DHT22;13256;49.012;8.610;2024-03-17T07:11:51;5.80;99.90
25320;DHT22;13256;49.012;8.610;2024-03-17T07:14:34;5.90;99.90
25320;DHT22;13256;49.012;8.610;2024-03-17T07:17:02;6.00;99.90
25320;DHT22;13256;49.012;8.610;2024-03-17T07:19:32;6.10;99.90
25320;DHT22;13256;49.012;8.610;2024-03-17T07:22:04;6.20;99.90
25320;DHT22;13256;49.012;8.610;2024-03-17T07:24:32;6.40;99.90
25320;DHT22;13256;49.012;8.610;2024-03-17T07:26:59;6.50;99.90
25320;DHT22;13256;49.012;8.610;2024-03-17T07:29:29;6.60;99.90
25320;DHT22;13256;49.012;8.610;2024-03-17T07:32:03;6.70;99.90
25320;DHT22;13256;49.012;8.610;2024-03-17T07:34:30;6.80;99.90
25320;DHT22;13256;49.012;8.610;2024-03-17T07:36:57;6.90;99.90
25320;DHT22;13256;49.012;8.610;2024-03-17T07:39:30;7.10;99.90
25320;DHT22;13256;49.012;8.610;2024-03-17T07:42:01;7.20;99.90
25320;DHT22;13256;49.012;8.610;2024-03-17T07:44:34;7.30;99.90
25320;DHT22;13256;49.012;8.610;2024-03-17T07:47:01;7.40;99.90
25320;DHT22;13256;49.012;8.610;2024-03-17T07:49:31;7.60;99.90
25320;DHT22;13256;49.012;8.610;2024-03-17T07:52:00;7.70;99.90
25320;DHT22;13256;49.012;8.610;2024-03-17T07:54:30;7.80;99.90
25320;DHT22;13256;49.012;8.610;2024-03-17T07:56:59;7.90;99.90
25320;DHT22;13256;49.012;8.610;2024-03-17T07:59:31;8.00;99.90
25320;DHT22;13256;49.012;8.610;2024-03-17T08:01:57;8.00;99.90
25320;DHT22;13256;49.012;8.610;2024-03-17T08:04:34;8.10;99.90
25320;DHT22;13256;49.012;8.610;2024-03-17T08:07:03;8.10;99.90
25320;DHT22;13256;49.012;8.610;2024-03-17T08:09:33;8.20;99.90
25320;DHT22;13256;49.012;8.610;2024-03-17T08:11:59;8.30;99.90
25320;DHT22;13256;49.012;8.610;2024-03-17T08:14:32;8.40;99.90
25320;DHT22;13256;49.012;8.610;2024-03-17T08:16:59;8.50;99.90
25320;DHT22;13256;49.012;8.610;2024-03-17T08:19:27;8.60;99.90
25320;DHT22;13256;49.012;8.610;2024-03-17T08:21:57;8.70;99.90
25320;DHT22;13256;49.012;8.610;2024-03-17T08:24:51;8.80;99.90
25320;DHT22;13256;49.012;8.610;2024-03-17T08:27:18;8.80;99.90
25320;DHT22;13256;49.012;8.610;2024-03-17T08:29:45;8.80;99.90
25320;DHT22;13256;49.012;8.610;2024-03-17T08:32:14;8.90;99.90
25320;DHT22;13256;49.012;8.610;2024-03-17T08:34:46;9.10;99.90
25320;DHT22;13256;49.012;8.610;2024-03-17T08:37:16;9.10;99.90
25320;DHT22;13256;49.012;8.610;2024-03-17T08:39:46;9.30;99.90
25320;DHT22;13256;49.012;8.610;2024-03-17T08:42:13;9.40;99.90
25320;DHT22;13256;49.012;8.610;2024-03-17T08:44:40;9.50;99.90
25320;DHT22;13256;49.012;8.610;2024-03-17T08:47:09;9.60;99.90
25320;DHT22;13256;49.012;8.610;2024-03-17T08:49:36;9.70;99.90
25320;DHT22;13256;49.012;8.610;2024-03-17T08:52:02;9.80;99.90
25320;DHT22;13256;49.012;8.610;2024-03-17T08:54:29;9.80;99.90
25320;DHT22;13256;49.012;8.610;2024-03-17T08:56:58;9.90;99.90
25320;DHT22;13256;49.012;8.610;2024-03-17T08:59:24;10.10;99.90
25320;DHT22;13256;49.012;8.610;2024-03-17T09:01:51;10.10;99.90
25320;DHT22;13256;49.012;8.610;2024-03-17T09:04:17;10.20;99.90
25320;DHT22;13256;49.012;8.610;2024-03-17T09:06:44;10.30;99.90
25320;DHT22;13256;49.012;8.610;2024-03-17T09:09:13;10.30;99.90
25320;DHT22;13256;49.012;8.610;2024-03-17T09:11:41;10.30;99.90
25320;DHT22;13256;49.012;8.610;2024-03-17T09:14:13;10.40;99.90
25320;DHT22;13256;49.012;8.610;2024-03-17T09:16:39;10.50;99.90
25320;DHT22;13256;49.012;8.610;2024-03-17T09:19:09;10.60;99.90
25320;DHT22;13256;49.012;8.610;2024-03-17T09:21:36;10.80;99.90
25320;DHT22;13256;49.012;8.610;2024-03-17T09:24:07;10.90;99.90
25320;DHT22;13256;49.012;8.610;2024-03-17T09:26:34;11.10;99.90
25320;DHT22;13256;49.012;8.610;2024-03-17T09:29:01;11.30;99.90
25320;DHT22;13256;49.012;8.610;2024-03-17T09:31:37;11.50;99.90
25320;DHT22;13256;49.012;8.610;2024-03-17T09:34:11;11.70;99.90
25320;DHT22;13256;49.012;8.610;2024-03-17T09:36:40;11.90;99.90
25320;DHT22;13256;49.012;8.610;2024-03-17T09:39:08;12.00;99.90
25320;DHT22;13256;49.012;8.610;2024-03-17T09:41:35;12.10;99.90
25320;DHT22;13256;49.012;8.610;2024-03-17T09:44:03;12.30;99.90
25320;DHT22;13256;49.012;8.610;2024-03-17T09:46:35;12.40;99.90
25320;DHT22;13256;49.012;8.610;2024-03-17T09:49:02;12.50;99.90
25320;DHT22;13256;49.012;8.610;2024-03-17T09:51:30;12.60;99.90
25320;DHT22;13256;49.012;8.610;2024-03-17T09:54:01;12.70;99.90
25320;DHT22;13256;49.012;8.610;2024-03-17T09:56:31;12.70;99.90
25320;DHT22;13256;49.012;8.610;2024-03-17T09:58:58;12.70;99.90
25320;DHT22;13256;49.012;8.610;2024-03-17T10:01:25;12.80;99.90
25320;DHT22;13256;49.012;8.610;2024-03-17T10:03:52;12.80;99.90
25320;DHT22;13256;49.012;8.610;2024-03-17T10:06:21;12.80;99.90
25320;DHT22;13256;49.012;8.610;2024-03-17T10:11:22;13.00;99.90
25320;DHT22;13256;49.012;8.610;2024-03-17T10:13:59;13.00;99.90
25320;DHT22;13256;49.012;8.610;2024-03-17T10:16:27;13.20;99.90
25320;DHT22;13256;49.012;8.610;2024-03-17T10:21:34;13.70;99.90
25320;DHT22;13256;49.012;8.610;2024-03-17T10:24:12;14.00;99.90
25320;DHT22;13256;49.012;8.610;2024-03-17T10:27:01;14.30;99.90
25320;DHT22;13256;49.012;8.610;2024-03-17T10:29:30;14.50;99.90
25320;DHT22;13256;49.012;8.610;2024-03-17T10:31:58;14.70;99.90
25320;DHT22;13256;49.012;8.610;2024-03-17T10:34:26;15.00;99.90
25320;DHT22;13256;49.012;8.610;2024-03-17T10:39:54;15.20;99.90
25320;DHT22;13256;49.012;8.610;2024-03-17T10:42:25;15.30;99.90
25320;DHT22;13256;49.012;8.610;2024-03-17T10:44:58;15.50;99.90
25320;DHT22;13256;49.012;8.610;2024-03-17T10:47:29;15.60;99.90
25320;DHT22;13256;49.012;8.610;2024-03-17T10:50:06;15.50;99.90
25320;DHT22;13256;49.012;8.610;2024-03-17T10:52:37;15.60;99.90
25320;DHT22;13256;49.012;8.610;2024-03-17T10:55:24;15.70;99.90
25320;DHT22;13256;49.012;8.610;2024-03-17T10:57:53;15.90;99.90
25320;DHT22;13256;49.012;8.610;2024-03-17T11:00:27;16.00;99.90
25320;DHT22;13256;49.012;8.610;2024-03-17T11:02:55;16.10;99.90
25320;DHT22;13256;49.012;8.610;2024-03-17T11:05:29;16.20;99.90
25320;DHT22;13256;49.012;8.610;2024-03-17T11:08:02;16.30;99.90
25320;DHT22;13256;49.012;8.610;2024-03-17T11:10:30;16.50;99.90
25320;DHT22;13256;49.012;8.610;2024-03-17T11:12:59;16.50;99.90
25320;DHT22;13256;49.012;8.610;2024-03-17T11:18:27;16.60;99.90
25320;DHT22;13256;49.012;8.610;2024-03-17T11:21:00;16.60;99.90
25320;DHT22;13256;49.012;8.610;2024-03-17T11:23:39;16.60;99.90
25320;DHT22;13256;49.012;8.610;2024-03-17T11:26:08;16.80;99.90
25320;DHT22;13256;49.012;8.610;2024-03-17T11:33:55;17.00;99.90
25320;DHT22;13256;49.012;8.610;2024-03-17T11:36:35;17.20;99.90
25320;DHT22;13256;49.012;8.610;2024-03-17T11:39:08;17.30;99.90
25320;DHT22;13256;49.012;8.610;2024-03-17T11:41:49;17.40;99.90
25320;DHT22;13256;49.012;8.610;2024-03-17T11:44:23;17.20;99.90
25320;DHT22;13256;49.012;8.610;2024-03-17T11:46:56;17.10;99.90
25320;DHT22;13256;49.012;8.610;2024-03-17T11:49:38;17.30;99.90
25320;DHT22;13256;49.012;8.610;2024-03-17T11:52:15;17.50;99.90
25320;DHT22;13256;49.012;8.610;2024-03-17T11:54:46;17.50;99.90
25320;DHT22;13256;49.012;8.610;2024-03-17T11:57:23;17.70;99.90
25320;DHT22;13256;49.012;8.610;2024-03-17T11:59:50;17.50;99.90
25320;DHT22;13256;49.012;8.610;2024-03-17T12:02:23;17.50;99.90
25320;DHT22;13256;49.012;8.610;2024-03-17T12:04:52;17.00;99.90
25320;DHT22;13256;49.012;8.610;2024-03-17T12:07:21;16.90;99.90
25320;DHT22;13256;49.012;8.610;2024-03-17T12:09:50;16.80;99.90
25320;DHT22;13256;49.012;8.610;2024-03-17T12:12:18;16.60;99.90
25320;DHT22;13256;49.012;8.610;2024-03-17T12:14:45;16.50;99.90
25320;DHT22;13256;49.012;8.610;2024-03-17T12:17:14;16.40;99.90
25320;DHT22;13256;49.012;8.610;2024-03-17T12:19:40;16.20;99.90
25320;DHT22;13256;49.012;8.610;2024-03-17T12:22:14;16.30;99.90
25320;DHT22;13256;49.012;8.610;2024-03-17T12:24:43;16.20;99.90
25320;DHT22;13256;49.012;8.610;2024-03-17T12:27:09;16.20;99.90
25320;DHT22;13256;49.012;8.610;2024-03-17T12:29:41;16.30;99.90
25320;DHT22;13256;49.012;8.610;2024-03-17T12:32:16;16.40;99.90
25320;DHT22;13256;49.012;8.610;2024-03-17T12:34:43;16.30;99.90
25320;DHT22;13256;49.012;8.610;2024-03-17T12:37:15;16.40;99.90
25320;DHT22;13256;49.012;8.610;2024-03-17T12:39:45;16.50;99.90
25320;DHT22;13256;49.012;8.610;2024-03-17T12:42:13;16.40;99.90
25320;DHT22;13256;49.012;8.610;2024-03-17T12:44:51;16.50;99.90
25320;DHT22;13256;49.012;8.610;2024-03-17T12:47:26;16.20;99.90
25320;DHT22;13256;49.012;8.610;2024-03-17T12:54:57;16.30;99.90
25320;DHT22;13256;49.012;8.610;2024-03-17T12:57:45;16.50;99.90
25320;DHT22;13256;49.012;8.610;2024-03-17T13:00:32;16.60;99.90
25320;DHT22;13256;49.012;8.610;2024-03-17T13:03:00;16.60;99.90
25320;DHT22;13256;49.012;8.610;2024-03-17T13:05:36;16.40;99.90
25320;DHT22;13256;49.012;8.610;2024-03-17T13:08:03;16.40;99.90
25320;DHT22;13256;49.012;8.610;2024-03-17T13:10:30;16.40;99.90
25320;DHT22;13256;49.012;8.610;2024-03-17T13:13:03;16.40;99.90
25320;DHT22;13256;49.012;8.610;2024-03-17T13:15:30;16.50;99.90
25320;DHT22;13256;49.012;8.610;2024-03-17T13:17:57;16.70;99.90
25320;DHT22;13256;49.012;8.610;2024-03-17T13:20:34;16.90;99.90
25320;DHT22;13256;49.012;8.610;2024-03-17T13:23:01;17.00;99.90
25320;DHT22;13256;49.012;8.610;2024-03-17T13:25:28;17.10;99.90
25320;DHT22;13256;49.012;8.610;2024-03-17T13:28:03;17.20;99.90
25320;DHT22;13256;49.012;8.610;2024-03-17T13:30:39;17.40;99.90
25320;DHT22;13256;49.012;8.610;2024-03-17T13:33:06;17.20;99.90
25320;DHT22;13256;49.012;8.610;2024-03-17T13:38:27;17.20;99.90
25320;DHT22;13256;49.012;8.610;2024-03-17T13:40:59;17.40;99.90
25320;DHT22;13256;49.012;8.610;2024-03-17T13:43:29;17.50;99.90
25320;DHT22;13256;49.012;8.610;2024-03-17T13:45:57;17.50;99.90
25320;DHT22;13256;49.012;8.610;2024-03-17T13:48:26;17.60;99.90
25320;DHT22;13256;49.012;8.610;2024-03-17T13:50:53;17.60;99.90
25320;DHT22;13256;49.012;8.610;2024-03-17T13:53:19;17.50;99.90
25320;DHT22;13256;49.012;8.610;2024-03-17T13:55:46;17.40;99.90
25320;DHT22;13256;49.012;8.610;2024-03-17T13:58:13;17.40;99.90
25320;DHT22;13256;49.012;8.610;2024-03-17T14:00:39;17.40;99.90
25320;DHT22;13256;49.012;8.610;2024-03-17T14:03:08;17.40;99.90
25320;DHT22;13256;49.012;8.610;2024-03-17T14:05:35;17.20;99.90
25320;DHT22;13256;49.012;8.610;2024-03-17T14:08:02;17.20;99.90
25320;DHT22;13256;49.012;8.610;2024-03-17T14:10:30;17.20;99.90
25320;DHT22;13256;49.012;8.610;2024-03-17T14:13:00;17.20;99.90
25320;DHT22;13256;49.012;8.610;2024-03-17T14:15:27;17.30;99.90
25320;DHT22;13256;49.012;8.610;2024-03-17T14:18:01;17.50;99.90
25320;DHT22;13256;49.012;8.610;2024-03-17T14:20:32;17.60;99.90
25320;DHT22;13256;49.012;8.610;2024-03-17T14:23:01;17.50;99.90
25320;DHT22;13256;49.012;8.610;2024-03-17T14:25:29;17.60;99.90
25320;DHT22;13256;49.012;8.610;2024-03-17T14:27:56;17.60;99.90
25320;DHT22;13256;49.012;8.610;2024-03-17T14:30:23;17.60;99.90
25320;DHT22;13256;49.012;8.610;2024-03-17T14:32:49;17.60;99.90
25320;DHT22;13256;49.012;8.610;2024-03-17T14:35:16;17.60;99.90
25320;DHT22;13256;49.012;8.610;2024-03-17T14:37:44;17.60;99.90
25320;DHT22;13256;49.012;8.610;2024-03-17T14:40:20;17.50;99.90
25320;DHT22;13256;49.012;8.610;2024-03-17T14:42:50;17.70;99.90
25320;DHT22;13256;49.012;8.610;2024-03-17T14:45:18;17.70;99.90
25320;DHT22;13256;49.012;8.610;2024-03-17T14:47:46;17.60;99.90
25320;DHT22;13256;49.012;8.610;2024-03-17T14:50:13;17.60;99.90
25320;DHT22;13256;49.012;8.610;2024-03-17T14:52:40;17.50;99.90
25320;DHT22;13256;49.012;8.610;2024-03-17T14:55:08;17.40;99.90
25320;DHT22;13256;49.012;8.610;2024-03-17T14:57:38;17.60;99.90
25320;DHT22;13256;49.012;8.610;2024-03-17T15:00:11;17.80;99.90
25320;DHT22;13256;49.012;8.610;2024-03-17T15:02:47;18.00;99.90
25320;DHT22;13256;49.012;8.610;2024-03-17T15:05:14;18.00;99.90
25320;DHT22;13256;49.012;8.610;2024-03-17T15:07:41;18.20;99.90
25320;DHT22;13256;49.012;8.610;2024-03-17T15:10:08;18.30;99.90
25320;DHT22;13256;49.012;8.610;2024-03-17T15:12:35;18.20;99.90
25320;DHT22;13256;49.012;8.610;2024-03-17T15:15:01;18.20;99.90
25320;DHT22;13256;49.012;8.610;2024-03-17T15:17:28;18.00;99.90
25320;DHT22;13256;49.012;8.610;2024-03-17T15:19:55;17.70;99.90
25320;DHT22;13256;49.012;8.610;2024-03-17T15:22:22;17.60;99.90
25320;DHT22;13256;49.012;8.610;2024-03-17T15:24:51;17.20;99.90
25320;DHT22;13256;49.012;8.610;2024-03-17T15:27:18;17.10;99.90
25320;DHT22;13256;49.012;8.610;2024-03-17T15:29:54;16.90;99.90
25320;DHT22;13256;49.012;8.610;2024-03-17T15:32:22;16.80;99.90
25320;DHT22;13256;49.012;8.610;2024-03-17T15:34:52;16.80;99.90
25320;DHT22;13256;49.012;8.610;2024-03-17T15:37:19;16.60;99.90
25320;DHT22;13256;49.012;8.610;2024-03-17T15:39:47;16.60;99.90
25320;DHT22;13256;49.012;8.610;2024-03-17T15:42:20;16.60;99.90
25320;DHT22;13256;49.012;8.610;2024-03-17T15:45:00;16.50;99.90
25320;DHT22;13256;49.012;8.610;2024-03-17T15:47:28;16.40;99.90
25320;DHT22;13256;49.012;8.610;2024-03-17T15:49:55;16.30;99.90
25320;DHT22;13256;49.012;8.610;2024-03-17T15:52:23;16.30;99.90
25320;DHT22;13256;49.012;8.610;2024-03-17T15:54:53;16.10;99.90
25320;DHT22;13256;49.012;8.610;2024-03-17T15:57:22;16.10;99.90
25320;DHT22;13256;49.012;8.610;2024-03-17T15:59:52;16.00;99.90
25320;DHT22;13256;49.012;8.610;2024-03-17T16:02:27;15.90;99.90
25320;DHT22;13256;49.012;8.610;2024-03-17T16:04:53;15.80;99.90
25320;DHT22;13256;49.012;8.610;2024-03-17T16:07:25;15.70;99.90
25320;DHT22;13256;49.012;8.610;2024-03-17T16:10:06;15.60;99.90
25320;DHT22;13256;49.012;8.610;2024-03-17T16:13:10;15.50;99.90
25320;DHT22;13256;49.012;8.610;2024-03-17T16:15:36;15.40;99.90
25320;DHT22;13256;49.012;8.610;2024-03-17T16:23:55;15.30;99.90
25320;DHT22;13256;49.012;8.610;2024-03-17T16:26:52;15.20;99.90
25320;DHT22;13256;49.012;8.610;2024-03-17T16:29:26;15.20;99.90
25320;DHT22;13256;49.012;8.610;2024-03-17T16:31:53;15.20;99.90
25320;DHT22;13256;49.012;8.610;2024-03-17T16:37:17;15.10;99.90
25320;DHT22;13256;49.012;8.610;2024-03-17T16:39:44;15.00;99.90
25320;DHT22;13256;49.012;8.610;2024-03-17T16:42:17;14.90;99.90
25320;DHT22;13256;49.012;8.610;2024-03-17T16:44:53;14.80;99.90